createdAt,value
2022-09-01T00:01:27.113Z,59.19
2022-09-01T00:03:55.484Z,59.36
2022-09-01T00:06:24.329Z,59.25
2022-09-01T00:08:55.887Z,59.41
2022-09-01T00:11:24.661Z,59.56
2022-09-01T00:13:52.851Z,59.47
2022-09-01T00:16:21.404Z,59.33
2022-09-01T00:18:53.642Z,59.62
2022-09-01T00:21:26.900Z,59.43
2022-09-01T00:23:54.188Z,60.07
2022-09-01T00:26:21.338Z,61.12
2022-09-01T00:28:48.048Z,60.94
2022-09-01T00:31:18.963Z,60.84
2022-09-01T00:33:47.780Z,60.33
2022-09-01T00:36:15.660Z,60.33
2022-09-01T00:38:42.623Z,60.22
2022-09-01T00:41:09.330Z,60.09
2022-09-01T00:43:40.887Z,60.37
2022-09-01T00:46:10.988Z,59.71
2022-09-01T00:48:37.823Z,60.16
2022-09-01T00:51:07.823Z,60.19
2022-09-01T00:53:35.839Z,59.70
2022-09-01T00:56:04.060Z,60.15
2022-09-01T00:58:32.450Z,60.19
2022-09-01T01:00:59.534Z,60.18
2022-09-01T01:03:26.135Z,59.65
2022-09-01T01:05:58.266Z,59.96
2022-09-01T01:08:34.058Z,59.51
2022-09-01T01:11:02.824Z,59.45
2022-09-01T01:13:49.342Z,60.00
2022-09-01T01:16:16.108Z,59.58
2022-09-01T01:18:43.100Z,59.71
2022-09-01T01:21:43.564Z,58.85
2022-09-01T01:24:31.901Z,58.90
2022-09-01T01:27:02.079Z,59.30
2022-09-01T01:29:32.981Z,59.38
2022-09-01T01:32:00.623Z,59.43
2022-09-01T01:34:27.289Z,59.29
2022-09-01T01:36:55.231Z,59.45
2022-09-01T01:39:25.520Z,59.32
2022-09-01T01:41:54.314Z,59.22
2022-09-01T01:44:27.895Z,59.23
2022-09-01T01:46:57.501Z,59.63
2022-09-01T01:49:29.092Z,59.27
2022-09-01T01:51:57.925Z,59.26
2022-09-01T01:54:32.360Z,58.98
2022-09-01T01:57:00.505Z,58.84
2022-09-01T01:59:29.611Z,58.94
2022-09-01T02:01:56.637Z,58.95
2022-09-01T02:04:23.671Z,59.30
2022-09-01T02:06:52.674Z,59.76
2022-09-01T02:09:23.178Z,60.09
2022-09-01T02:11:54.330Z,59.63
2022-09-01T02:14:21.711Z,59.40
2022-09-01T02:16:48.530Z,59.63
2022-09-01T02:19:19.526Z,59.42
2022-09-01T02:21:49.026Z,59.41
2022-09-01T02:24:15.577Z,59.99
2022-09-01T02:26:47.412Z,59.77
2022-09-01T02:29:19.137Z,59.78
2022-09-01T02:31:48.331Z,59.62
2022-09-01T02:34:16.487Z,59.95
2022-09-01T02:36:50.133Z,60.39
2022-09-01T02:39:23.377Z,60.41
2022-09-01T02:41:50.892Z,60.14
2022-09-01T02:44:23.118Z,59.92
2022-09-01T02:46:50.738Z,60.08
2022-09-01T02:49:28.373Z,60.00
2022-09-01T02:52:01.225Z,60.25
2022-09-01T02:54:31.116Z,60.01
2022-09-01T02:56:57.805Z,60.46
2022-09-01T02:59:27.448Z,60.57
2022-09-01T03:01:57.969Z,60.51
2022-09-01T03:04:27.070Z,60.25
2022-09-01T03:06:54.834Z,60.78
2022-09-01T03:09:22.982Z,60.08
2022-09-01T03:11:52.271Z,60.12
2022-09-01T03:14:19.794Z,60.40
2022-09-01T03:16:46.601Z,60.44
2022-09-01T03:19:14.413Z,60.40
2022-09-01T03:21:43.879Z,60.81
2022-09-01T03:24:15.363Z,60.84
2022-09-01T03:26:44.262Z,61.03
2022-09-01T03:29:12.068Z,61.08
2022-09-01T03:31:38.960Z,61.10
2022-09-01T03:34:06.705Z,61.60
2022-09-01T03:36:39.718Z,61.11
2022-09-01T03:39:14.543Z,61.09
2022-09-01T03:41:43.567Z,60.90
2022-09-01T03:44:12.080Z,61.89
2022-09-01T03:46:40.389Z,61.66
2022-09-01T03:49:15.277Z,61.86
2022-09-01T03:51:44.877Z,62.03
2022-09-01T03:54:12.314Z,61.80
2022-09-01T03:56:41.625Z,61.43
2022-09-01T03:59:17.027Z,61.02
2022-09-01T04:01:45.420Z,61.51
2022-09-01T04:04:13.986Z,61.27
2022-09-01T04:06:43.759Z,60.97
2022-09-01T04:09:10.946Z,60.95
2022-09-01T04:11:43.765Z,60.72
2022-09-01T04:14:15.257Z,60.57
2022-09-01T04:17:02.349Z,60.25
2022-09-01T04:19:30.586Z,59.81
2022-09-01T04:22:00.418Z,58.13
2022-09-01T04:24:34.775Z,58.39
2022-09-01T04:27:03.162Z,58.74
2022-09-01T04:29:31.787Z,58.36
2022-09-01T04:32:03.646Z,58.07
2022-09-01T04:34:41.612Z,57.47
2022-09-01T04:37:21.370Z,57.44
2022-09-01T04:39:56.698Z,57.62
2022-09-01T04:42:32.575Z,57.75
2022-09-01T04:45:10.571Z,57.59
2022-09-01T04:47:42.099Z,57.78
2022-09-01T04:50:17.872Z,58.09
2022-09-01T04:53:06.766Z,58.75
2022-09-01T04:55:46.152Z,58.10
2022-09-01T04:58:18.731Z,58.63
2022-09-01T05:00:52.338Z,58.83
2022-09-01T05:03:23.970Z,58.78
2022-09-01T05:06:02.526Z,58.97
2022-09-01T05:08:29.210Z,58.07
2022-09-01T05:11:07.522Z,57.96
2022-09-01T05:13:40.391Z,57.43
2022-09-01T05:16:13.301Z,57.41
2022-09-01T05:18:47.474Z,56.08
2022-09-01T05:21:22.349Z,56.46
2022-09-01T05:23:51.682Z,56.39
2022-09-01T05:26:26.142Z,56.06
2022-09-01T05:28:55.395Z,56.17
2022-09-01T05:31:23.880Z,55.69
2022-09-01T05:33:51.798Z,55.81
2022-09-01T05:36:22.979Z,55.88
2022-09-01T05:38:52.202Z,55.65
2022-09-01T05:41:21.035Z,55.71
2022-09-01T05:43:50.433Z,55.62
2022-09-01T05:46:22.832Z,54.40
2022-09-01T05:48:51.894Z,53.62
2022-09-01T05:51:43.222Z,52.53
2022-09-01T05:54:09.856Z,52.43
2022-09-01T05:56:43.696Z,51.55
2022-09-01T05:59:23.351Z,51.04
2022-09-01T06:01:53.469Z,51.36
2022-09-01T06:04:22.861Z,51.27
2022-09-01T06:07:08.446Z,51.48
2022-09-01T06:09:41.500Z,51.85
2022-09-01T06:12:17.245Z,51.07
2022-09-01T06:14:46.541Z,51.77
2022-09-01T06:17:16.608Z,51.73
2022-09-01T06:19:44.323Z,51.04
2022-09-01T06:22:11.447Z,50.81
2022-09-01T06:24:40.799Z,50.94
2022-09-01T06:27:10.997Z,51.12
2022-09-01T06:29:41.707Z,51.04
2022-09-01T06:32:10.422Z,50.96
2022-09-01T06:34:44.519Z,49.61
2022-09-01T06:37:13.283Z,50.31
2022-09-01T06:39:43.888Z,50.12
2022-09-01T06:42:12.876Z,50.43
2022-09-01T06:44:54.709Z,49.25
2022-09-01T06:47:21.407Z,47.96
2022-09-01T06:49:48.078Z,48.56
2022-09-01T06:52:20.818Z,48.13
2022-09-01T06:54:48.694Z,49.12
2022-09-01T07:00:07.878Z,47.88
2022-09-01T07:02:34.526Z,47.61
2022-09-01T07:08:13.494Z,46.96
2022-09-01T07:16:41.921Z,44.71
2022-09-01T07:19:19.289Z,44.95
2022-09-01T07:22:07.958Z,45.18
2022-09-01T07:24:36.879Z,45.27
2022-09-01T07:27:35.661Z,44.37
2022-09-01T07:30:03.530Z,43.28
2022-09-01T07:32:47.654Z,43.87
2022-09-01T07:35:19.944Z,43.66
2022-09-01T07:38:47.527Z,42.39
2022-09-01T07:44:05.216Z,41.17
2022-09-01T07:46:38.111Z,41.18
2022-09-01T07:52:02.156Z,42.92
2022-09-01T07:54:30.222Z,43.89
2022-09-01T07:56:57.353Z,43.46
2022-09-01T07:59:27.811Z,44.34
2022-09-01T08:02:18.397Z,44.48
2022-09-01T08:04:46.406Z,46.18
2022-09-01T08:07:17.071Z,45.44
2022-09-01T08:09:44.613Z,44.78
2022-09-01T08:12:13.230Z,43.64
2022-09-01T08:14:46.702Z,42.13
2022-09-01T08:17:18.027Z,39.99
2022-09-01T08:20:07.993Z,39.28
2022-09-01T08:22:51.846Z,39.33
2022-09-01T08:25:25.084Z,38.36
2022-09-01T08:27:59.804Z,38.89
2022-09-01T08:30:27.856Z,38.55
2022-09-01T08:32:54.519Z,37.43
2022-09-01T08:35:21.354Z,38.07
2022-09-01T08:37:47.905Z,36.55
2022-09-01T08:40:20.588Z,37.01
2022-09-01T08:42:58.132Z,37.62
2022-09-01T08:45:30.134Z,37.71
2022-09-01T08:49:16.099Z,38.24
2022-09-01T08:51:13.504Z,38.66
2022-09-01T08:54:10.747Z,37.81
2022-09-01T08:56:38.181Z,38.50
2022-09-01T08:59:09.591Z,38.36
2022-09-01T09:02:06.517Z,38.91
2022-09-01T09:04:40.954Z,38.76
2022-09-01T09:07:35.099Z,38.89
2022-09-01T09:10:30.634Z,38.23
2022-09-01T09:13:18.497Z,37.05
2022-09-01T09:16:09.459Z,36.32
2022-09-01T09:18:56.795Z,34.80
2022-09-01T09:21:36.950Z,33.53
2022-09-01T09:24:09.034Z,35.22
2022-09-01T09:26:42.969Z,36.31
2022-09-01T09:29:09.803Z,37.13
2022-09-01T09:31:46.125Z,36.85
2022-09-01T09:34:30.162Z,37.07
2022-09-01T09:36:57.369Z,34.52
2022-09-01T09:39:24.100Z,35.27
2022-09-01T09:42:12.302Z,35.32
2022-09-01T09:44:52.779Z,34.85
2022-09-01T09:47:44.695Z,34.65
2022-09-01T09:50:43.152Z,33.77
2022-09-01T09:53:14.717Z,32.44
2022-09-01T09:55:57.343Z,32.08
2022-09-01T09:58:28.089Z,32.31
2022-09-01T10:01:17.340Z,33.26
2022-09-01T10:03:59.042Z,33.68
2022-09-01T10:06:37.651Z,34.08
2022-09-01T10:09:08.187Z,34.92
2022-09-01T10:11:44.438Z,35.53
2022-09-01T10:14:35.382Z,35.66
2022-09-01T10:17:32.392Z,36.03
2022-09-01T10:20:17.560Z,35.91
2022-09-01T10:22:44.955Z,35.90
2022-09-01T10:25:19.512Z,35.80
2022-09-01T10:27:55.497Z,35.17
2022-09-01T10:30:24.889Z,35.01
2022-09-01T10:32:56.963Z,35.56
2022-09-01T10:35:29.698Z,35.25
2022-09-01T10:37:59.442Z,33.86
2022-09-01T10:40:30.975Z,34.62
2022-09-01T10:43:27.300Z,35.46
2022-09-01T10:45:58.906Z,35.90
2022-09-01T10:48:47.914Z,35.85
2022-09-01T10:51:19.221Z,35.74
2022-09-01T10:54:06.761Z,34.28
2022-09-01T10:56:52.612Z,30.94
2022-09-01T10:59:43.471Z,29.40
2022-09-01T11:02:26.005Z,30.08
2022-09-01T11:05:02.824Z,31.11
2022-09-01T11:07:50.759Z,31.83
2022-09-01T11:10:49.345Z,32.48
2022-09-01T11:13:47.598Z,32.01
2022-09-01T11:16:52.134Z,28.65
2022-09-01T11:19:31.969Z,28.02
2022-09-01T11:22:26.780Z,28.02
2022-09-01T11:25:40.766Z,28.31
2022-09-01T11:28:17.873Z,26.33
2022-09-01T11:31:06.547Z,25.75
2022-09-01T11:33:51.142Z,24.57
2022-09-01T11:36:39.224Z,23.65
2022-09-01T11:39:18.040Z,24.25
2022-09-01T11:41:54.503Z,23.88
2022-09-01T11:44:46.733Z,22.96
2022-09-01T11:47:26.689Z,24.08
2022-09-01T11:50:04.191Z,22.89
2022-09-01T11:52:35.891Z,20.53
2022-09-01T11:55:06.157Z,17.40
2022-09-01T11:57:35.545Z,14.19
2022-09-01T12:00:06.659Z,13.26
2022-09-01T12:02:47.098Z,11.89
2022-09-01T12:05:43.376Z,12.89
2022-09-01T12:08:18.281Z,11.77
2022-09-01T12:10:50.668Z,11.55
2022-09-01T12:13:21.634Z,10.65
2022-09-01T12:16:17.073Z,13.76
2022-09-01T12:18:47.508Z,17.33
2022-09-01T12:21:31.728Z,21.08
2022-09-01T12:24:16.458Z,23.31
2022-09-01T12:26:44.838Z,24.61
2022-09-01T12:29:13.899Z,23.89
2022-09-01T12:31:45.566Z,22.46
2022-09-01T12:34:28.128Z,21.89
2022-09-01T12:37:20.752Z,25.36
2022-09-01T12:39:50.661Z,28.33
2022-09-01T12:42:20.362Z,29.56
2022-09-01T12:44:52.100Z,29.77
2022-09-01T12:47:35.788Z,25.88
2022-09-01T12:50:29.776Z,22.64
2022-09-01T12:53:04.803Z,22.29
2022-09-01T12:55:50.259Z,22.48
2022-09-01T12:58:25.602Z,25.40
2022-09-01T13:01:16.127Z,27.28
2022-09-01T13:04:03.644Z,28.29
2022-09-01T13:06:30.170Z,29.37
2022-09-01T13:08:56.912Z,29.59
2022-09-01T13:11:23.723Z,30.13
2022-09-01T13:13:50.284Z,30.90
2022-09-01T13:16:16.964Z,30.54
2022-09-01T13:21:32.180Z,31.14
2022-09-01T13:23:59.003Z,32.02
2022-09-01T13:26:26.337Z,25.94
2022-09-01T13:28:53.796Z,21.27
2022-09-01T13:31:36.031Z,17.85
2022-09-01T13:34:10.755Z,18.34
2022-09-01T13:36:49.487Z,21.15
2022-09-01T13:39:19.006Z,23.57
2022-09-01T13:41:47.822Z,24.92
2022-09-01T13:44:16.985Z,25.87
2022-09-01T13:47:00.937Z,26.80
2022-09-01T13:52:18.587Z,28.11
2022-09-01T13:54:45.374Z,27.57
2022-09-01T13:57:12.263Z,27.86
2022-09-01T13:59:39.035Z,28.39
2022-09-01T14:02:05.952Z,28.37
2022-09-01T14:04:32.538Z,28.80
2022-09-01T14:06:59.764Z,28.44
2022-09-01T14:09:26.432Z,27.70
2022-09-01T14:11:54.423Z,24.07
2022-09-01T14:14:21.804Z,21.68
2022-09-01T14:16:49.207Z,20.94
2022-09-01T14:19:15.958Z,21.79
2022-09-01T14:21:44.396Z,24.55
2022-09-01T14:24:12.844Z,26.33
2022-09-01T14:26:41.286Z,26.38
2022-09-01T14:29:08.473Z,23.26
2022-09-01T14:31:37.670Z,20.91
2022-09-01T14:34:05.023Z,21.42
2022-09-01T14:36:31.592Z,23.74
2022-09-01T14:38:59.486Z,24.04
2022-09-01T14:41:27.176Z,24.26
2022-09-01T14:44:02.318Z,24.63
2022-09-01T14:46:34.292Z,24.90
2022-09-01T14:49:02.503Z,26.33
2022-09-01T14:54:17.487Z,27.73
2022-09-01T14:57:28.603Z,27.54
2022-09-01T14:59:31.258Z,28.37
2022-09-01T15:01:57.965Z,28.97
2022-09-01T15:04:24.769Z,29.51
2022-09-01T15:06:51.396Z,29.85
2022-09-01T15:09:19.254Z,29.99
2022-09-01T15:11:46.408Z,30.01
2022-09-01T15:14:13.207Z,30.08
2022-09-01T15:16:41.464Z,30.02
2022-09-01T15:19:11.012Z,30.40
2022-09-01T15:21:40.199Z,30.29
2022-09-01T15:24:08.617Z,30.47
2022-09-01T15:26:35.960Z,29.41
2022-09-01T15:29:03.661Z,29.68
2022-09-01T15:31:33.569Z,30.21
2022-09-01T15:34:03.737Z,29.66
2022-09-01T15:36:31.281Z,29.33
2022-09-01T15:38:58.519Z,29.39
2022-09-01T15:41:28.112Z,29.16
2022-09-01T15:43:56.141Z,29.73
2022-09-01T15:46:23.466Z,30.10
2022-09-01T15:48:50.576Z,30.42
2022-09-01T15:51:23.248Z,31.00
2022-09-01T15:53:58.360Z,31.53
2022-09-01T15:56:24.992Z,31.84
2022-09-01T15:59:00.667Z,31.80
2022-09-01T16:01:29.833Z,31.91
2022-09-01T16:03:57.394Z,31.69
2022-09-01T16:06:24.583Z,31.94
2022-09-01T16:08:54.560Z,31.35
2022-09-01T16:11:25.219Z,30.73
2022-09-01T16:13:53.899Z,31.18
2022-09-01T16:17:08.569Z,31.03
2022-09-01T16:19:56.796Z,31.36
2022-09-01T16:22:37.203Z,31.62
2022-09-01T16:25:31.694Z,31.75
2022-09-01T16:28:07.159Z,32.43
2022-09-01T16:30:34.459Z,32.91
2022-09-01T16:33:04.646Z,33.38
2022-09-01T16:35:49.105Z,32.43
2022-09-01T16:38:29.262Z,32.28
2022-09-01T16:40:58.862Z,32.79
2022-09-01T16:43:49.739Z,33.55
2022-09-01T16:46:45.643Z,33.35
2022-09-01T16:49:39.920Z,33.33
2022-09-01T16:52:17.252Z,33.85
2022-09-01T16:55:21.223Z,33.62
2022-09-01T16:58:13.270Z,33.87
2022-09-01T17:00:57.971Z,33.93
2022-09-01T17:03:43.835Z,34.37
2022-09-01T17:06:21.583Z,35.01
2022-09-01T17:08:55.378Z,35.13
2022-09-01T17:11:32.800Z,34.97
2022-09-01T17:14:01.073Z,34.94
2022-09-01T17:16:39.778Z,35.72
2022-09-01T17:19:16.286Z,36.00
2022-09-01T17:21:53.321Z,36.21
2022-09-01T17:24:28.407Z,36.45
2022-09-01T17:27:02.512Z,36.56
2022-09-01T17:29:34.376Z,36.86
2022-09-01T17:32:13.867Z,36.86
2022-09-01T17:34:45.667Z,36.59
2022-09-01T17:37:46.247Z,37.02
2022-09-01T17:40:21.369Z,37.18
2022-09-01T17:43:06.724Z,37.66
2022-09-01T17:45:51.311Z,37.65
2022-09-01T17:48:22.024Z,38.24
2022-09-01T17:51:26.551Z,38.52
2022-09-01T17:54:19.212Z,38.38
2022-09-01T17:56:56.778Z,38.57
2022-09-01T18:00:01.908Z,38.78
2022-09-01T18:03:04.137Z,38.93
2022-09-01T18:05:40.102Z,39.00
2022-09-01T18:08:28.137Z,39.46
2022-09-01T18:11:06.646Z,39.71
2022-09-01T18:14:07.590Z,40.20
2022-09-01T18:16:57.158Z,39.93
2022-09-01T18:19:29.291Z,40.09
2022-09-01T18:22:03.642Z,40.80
2022-09-01T18:24:49.144Z,41.19
2022-09-01T18:27:15.739Z,41.32
2022-09-01T18:29:45.477Z,41.83
2022-09-01T18:32:36.838Z,42.13
2022-09-01T18:35:34.069Z,42.21
2022-09-01T18:38:19.323Z,42.36
2022-09-01T18:41:12.060Z,43.18
2022-09-01T18:43:48.727Z,43.41
2022-09-01T18:46:49.583Z,43.33
2022-09-01T18:49:49.072Z,43.54
2022-09-01T18:52:36.966Z,43.77
2022-09-01T18:55:25.064Z,44.29
2022-09-01T18:57:56.193Z,44.19
2022-09-01T19:00:52.195Z,45.04
2022-09-01T19:03:38.666Z,45.00
2022-09-01T19:06:22.292Z,45.07
2022-09-01T19:09:20.957Z,45.35
2022-09-01T19:11:59.786Z,45.92
2022-09-01T19:14:43.148Z,46.20
2022-09-01T19:17:20.257Z,46.04
2022-09-01T19:19:59.424Z,46.56
2022-09-01T19:23:05.604Z,46.66
2022-09-01T19:25:38.746Z,47.36
2022-09-01T19:28:18.879Z,48.00
2022-09-01T19:31:00.587Z,47.82
2022-09-01T19:33:34.722Z,47.99
2022-09-01T19:36:09.438Z,48.05
2022-09-01T19:38:37.315Z,48.56
2022-09-01T19:41:08.858Z,48.15
2022-09-01T19:43:41.000Z,48.92
2022-09-01T19:46:38.033Z,48.39
2022-09-01T19:49:20.504Z,48.73
2022-09-01T19:52:03.601Z,48.82
2022-09-01T19:54:55.217Z,49.01
2022-09-01T19:57:28.727Z,49.51
2022-09-01T20:00:19.995Z,49.38
2022-09-01T20:03:01.117Z,49.38
2022-09-01T20:05:34.746Z,49.42
2022-09-01T20:08:08.528Z,50.38
2022-09-01T20:10:42.556Z,50.49
2022-09-01T20:13:29.338Z,50.76
2022-09-01T20:16:12.395Z,50.34
2022-09-01T20:18:46.858Z,51.36
2022-09-01T20:21:18.810Z,51.17
2022-09-01T20:23:55.463Z,51.10
2022-09-01T20:26:27.152Z,51.63
2022-09-01T20:29:01.497Z,52.29
2022-09-01T20:31:32.452Z,51.75
2022-09-01T20:34:29.206Z,51.54
2022-09-01T20:37:18.219Z,52.32
2022-09-01T20:40:01.173Z,52.11
2022-09-01T20:42:48.403Z,52.35
2022-09-01T20:45:19.505Z,52.62
2022-09-01T20:48:01.762Z,53.08
2022-09-01T20:50:54.045Z,53.31
2022-09-01T20:54:13.648Z,53.04
2022-09-01T20:57:16.851Z,53.15
2022-09-01T20:59:51.850Z,53.90
2022-09-01T21:02:33.287Z,53.33
2022-09-01T21:05:41.370Z,53.35
2022-09-01T21:08:29.678Z,53.35
2022-09-01T21:11:08.589Z,54.18
2022-09-01T21:13:59.698Z,54.13
2022-09-01T21:16:34.023Z,53.77
2022-09-01T21:19:20.964Z,54.36
2022-09-01T21:22:03.359Z,54.52
2022-09-01T21:24:30.179Z,55.07
2022-09-01T21:26:59.535Z,55.21
2022-09-01T21:29:39.511Z,55.03
2022-09-01T21:32:06.552Z,55.32
2022-09-01T21:34:33.254Z,55.13
2022-09-01T21:36:59.929Z,54.94
2022-09-01T21:39:26.519Z,54.95
2022-09-01T21:41:53.242Z,55.11
2022-09-01T21:44:21.040Z,55.28
2022-09-01T21:46:48.273Z,55.40
2022-09-01T21:49:15.145Z,55.52
2022-09-01T21:51:42.159Z,56.22
2022-09-01T21:54:09.871Z,55.80
2022-09-01T21:56:36.944Z,55.72
2022-09-01T21:59:04.135Z,56.29
2022-09-01T22:01:33.800Z,56.38
2022-09-01T22:04:01.552Z,56.86
2022-09-01T22:06:28.282Z,56.47
2022-09-01T22:08:54.846Z,56.92
2022-09-01T22:11:21.682Z,56.98
2022-09-01T22:13:49.609Z,57.31
2022-09-01T22:16:18.619Z,57.56
2022-09-01T22:18:45.339Z,57.55
2022-09-01T22:21:12.142Z,58.28
2022-09-01T22:23:40.291Z,58.25
2022-09-01T22:26:09.639Z,58.87
2022-09-01T22:28:39.196Z,58.71
2022-09-01T22:31:07.145Z,58.66
2022-09-01T22:33:34.072Z,59.40
2022-09-01T22:36:00.663Z,58.09
2022-09-01T22:38:27.282Z,58.88
2022-09-01T22:40:57.163Z,58.68
2022-09-01T22:43:24.621Z,58.51
2022-09-01T22:45:52.062Z,58.42
2022-09-01T22:48:20.956Z,58.36
2022-09-01T22:50:48.970Z,58.80
2022-09-01T22:53:17.750Z,58.32
2022-09-01T22:55:47.101Z,59.64
2022-09-01T22:58:15.113Z,58.66
2022-09-01T23:00:48.124Z,58.94
2022-09-01T23:03:15.711Z,59.67
2022-09-01T23:05:43.031Z,59.59
2022-09-01T23:08:09.837Z,59.04
2022-09-01T23:10:36.442Z,59.26
2022-09-01T23:13:03.094Z,59.00
2022-09-01T23:15:29.928Z,59.34
2022-09-01T23:17:56.460Z,59.63
2022-09-01T23:20:23.040Z,59.33
2022-09-01T23:22:49.839Z,59.70
2022-09-01T23:25:16.938Z,59.99
2022-09-01T23:27:43.535Z,59.62
2022-09-01T23:30:12.921Z,59.90
2022-09-01T23:32:39.914Z,60.09
2022-09-01T23:35:07.605Z,59.90
2022-09-01T23:37:34.253Z,60.56
2022-09-01T23:40:00.921Z,60.27
2022-09-01T23:42:27.474Z,60.47
2022-09-01T23:44:54.028Z,60.36
2022-09-01T23:47:20.526Z,60.22
2022-09-01T23:49:47.029Z,60.87
2022-09-01T23:52:13.703Z,60.90
2022-09-01T23:54:40.260Z,61.15
2022-09-01T23:57:06.889Z,61.16
2022-09-01T23:59:33.420Z,61.00
